Time;durP1;ratioP1;P1;durP2;ratioP2;P2;SDS_P1;SDS_P2;PMS_P1;PMS_P2;Temp;Humidity;BMP_temperature;BMP_pressure;BME280_temperature;BME280_humidity;BME280_pressure;Samples;Min_cycle;Max_cycle;Signal;HPM_P1;HPM_P2
2023/11/21 00:01:58;;;;;;;0.20;0.20;;;9.20;99.90;;;;;;5040779;28;20041;-84
2023/11/21 00:04:24;;;;;;;0.40;0.40;;;9.20;99.90;;;;;;5042905;28;20056;-84
2023/11/21 00:06:50;;;;;;;0.40;0.40;;;9.20;99.90;;;;;;5047941;28;20045;-84
2023/11/21 00:09:17;;;;;;;0.32;0.32;;;9.20;99.90;;;;;;5047862;28;20041;-84
2023/11/21 00:11:44;;;;;;;0.75;0.75;;;9.20;99.90;;;;;;5021135;28;20055;-84
2023/11/21 00:14:10;;;;;;;0.73;0.57;;;9.20;99.90;;;;;;5045971;28;20048;-85
2023/11/21 00:16:36;;;;;;;0.43;0.43;;;9.20;99.90;;;;;;5048276;28;20049;-83
2023/11/21 00:19:02;;;;;;;0.30;0.30;;;9.20;99.90;;;;;;5027631;28;20094;-83
2023/11/21 00:21:28;;;;;;;0.40;0.40;;;9.20;99.90;;;;;;5015477;28;20047;-83
2023/11/21 00:23:53;;;;;;;0.77;0.77;;;9.20;99.90;;;;;;5039473;28;20098;-83
2023/11/21 00:26:19;;;;;;;0.20;0.20;;;9.20;99.90;;;;;;5041425;28;20041;-81
2023/11/21 00:28:45;;;;;;;5.03;2.00;;;9.20;99.90;;;;;;5023429;28;20136;-82
2023/11/21 00:31:11;;;;;;;0.30;0.30;;;9.20;99.90;;;;;;5036842;28;20491;-83
2023/11/21 00:33:37;;;;;;;0.32;0.32;;;9.20;99.90;;;;;;5037715;28;20102;-82
2023/11/21 00:36:02;;;;;;;0.40;0.40;;;9.20;99.90;;;;;;5023378;28;20482;-83
2023/11/21 00:38:28;;;;;;;0.30;0.30;;;9.30;99.90;;;;;;5039177;28;20117;-82
2023/11/21 00:40:56;;;;;;;0.50;0.50;;;9.30;99.90;;;;;;5031392;28;20044;-82
2023/11/21 00:43:25;;;;;;;0.70;0.70;;;9.20;99.90;;;;;;5041076;28;20076;-81
2023/11/21 00:45:51;;;;;;;0.70;0.70;;;9.20;99.90;;;;;;5041934;28;20096;-81
2023/11/21 00:48:17;;;;;;;0.30;0.30;;;9.20;99.90;;;;;;5042614;28;20049;-81
2023/11/21 00:50:44;;;;;;;1.02;1.02;;;9.20;99.90;;;;;;5041401;28;20048;-81
2023/11/21 00:53:10;;;;;;;;;;;9.20;99.90;;;;;;5034783;28;20044;-81
2023/11/21 00:55:40;;;;;;;0.57;0.57;;;9.20;99.90;;;;;;5020781;28;19927;-80
2023/11/21 00:58:06;;;;;;;0.30;0.30;;;9.20;99.90;;;;;;5007199;28;20467;-81
2023/11/21 01:00:33;;;;;;;0.40;0.40;;;9.20;99.90;;;;;;5034719;28;20036;-82
2023/11/21 01:02:59;;;;;;;0.30;0.30;;;9.10;99.90;;;;;;5025383;28;20045;-82
2023/11/21 01:05:25;;;;;;;;;;;9.20;99.90;;;;;;5006974;28;20071;-83
2023/11/21 01:07:51;;;;;;;2.25;2.10;;;9.10;99.90;;;;;;5043106;28;19975;-84
2023/11/21 01:10:17;;;;;;;0.38;0.38;;;9.10;99.90;;;;;;5028049;28;20094;-83
2023/11/21 01:12:42;;;;;;;;;;;9.10;99.90;;;;;;5047431;28;20052;-83
2023/11/21 01:15:12;;;;;;;0.30;0.30;;;9.10;99.90;;;;;;5045029;28;19929;-83
2023/11/21 01:17:38;;;;;;;0.30;0.30;;;9.20;99.90;;;;;;5026919;28;20052;-82
2023/11/21 01:20:12;;;;;;;0.40;0.40;;;9.10;99.90;;;;;;5046373;28;20048;-82
2023/11/21 01:22:39;;;;;;;0.30;0.30;;;9.10;99.90;;;;;;5036657;28;20064;-82
2023/11/21 01:25:07;;;;;;;0.40;0.40;;;9.10;99.90;;;;;;5018108;28;20098;-82
2023/11/21 01:27:34;;;;;;;0.40;0.40;;;9.10;99.90;;;;;;5043705;28;20049;-83
2023/11/21 01:30:00;;;;;;;0.30;0.30;;;9.20;99.90;;;;;;5013931;28;20724;-82
2023/11/21 01:32:25;;;;;;;0.43;0.43;;;9.20;99.90;;;;;;5037060;28;20041;-81
2023/11/21 01:34:51;;;;;;;0.50;0.50;;;9.20;99.90;;;;;;5014234;28;20048;-81
2023/11/21 01:37:17;;;;;;;0.40;0.40;;;9.20;99.90;;;;;;5031033;28;20099;-81
2023/11/21 01:39:44;;;;;;;0.30;0.30;;;9.10;99.90;;;;;;5045876;28;20105;-81
2023/11/21 01:42:11;;;;;;;0.30;0.30;;;9.20;99.90;;;;;;5024202;28;20042;-81
2023/11/21 01:44:36;;;;;;;0.60;0.60;;;9.20;99.90;;;;;;5036708;28;20045;-82
2023/11/21 01:47:05;;;;;;;0.40;0.40;;;9.20;99.90;;;;;;5032390;28;20380;-82
2023/11/21 01:49:33;;;;;;;0.20;0.20;;;9.20;99.90;;;;;;5037731;28;20485;-81
2023/11/21 01:51:59;;;;;;;0.32;0.32;;;9.20;99.90;;;;;;5037138;28;20048;-81
2023/11/21 01:54:25;;;;;;;0.40;0.40;;;9.20;99.90;;;;;;5019939;28;20033;-80
2023/11/21 01:56:51;;;;;;;;;;;9.20;99.90;;;;;;5042170;28;21223;-81
2023/11/21 01:59:21;;;;;;;0.30;0.30;;;9.20;99.90;;;;;;5035825;28;19967;-81
2023/11/21 02:01:47;;;;;;;0.30;0.30;;;9.20;99.90;;;;;;5043557;28;20048;-80
2023/11/21 02:04:13;;;;;;;0.20;0.20;;;9.20;99.90;;;;;;5037249;28;20052;-80
2023/11/21 02:06:39;;;;;;;0.30;0.30;;;9.20;99.90;;;;;;5044132;28;20048;-80
2023/11/21 02:09:05;;;;;;;0.40;0.40;;;9.20;99.90;;;;;;5034732;28;20036;-81
2023/11/21 02:11:33;;;;;;;0.30;0.30;;;9.20;99.90;;;;;;5025968;28;20044;-80
2023/11/21 02:14:00;;;;;;;0.30;0.30;;;9.20;99.90;;;;;;5052286;28;20079;-80
2023/11/21 02:16:27;;;;;;;0.32;0.32;;;9.20;99.90;;;;;;5034859;28;20053;-80
2023/11/21 02:18:53;;;;;;;0.30;0.30;;;9.20;99.90;;;;;;5037160;28;20071;-80
2023/11/21 02:21:21;;;;;;;0.38;0.38;;;9.20;99.90;;;;;;5034604;28;20411;-80
2023/11/21 02:23:47;;;;;;;0.30;0.30;;;9.20;99.90;;;;;;5036856;28;20085;-80
2023/11/21 02:26:14;;;;;;;0.30;0.30;;;9.20;99.90;;;;;;5021664;28;20450;-80
2023/11/21 02:28:40;;;;;;;0.22;0.22;;;9.20;99.90;;;;;;5021955;28;20135;-81
2023/11/21 02:31:07;;;;;;;0.20;0.20;;;9.20;99.90;;;;;;5030630;28;20523;-82
2023/11/21 02:33:33;;;;;;;0.30;0.30;;;9.30;99.90;;;;;;5021447;28;20045;-82
2023/11/21 02:36:00;;;;;;;0.30;0.30;;;9.20;99.90;;;;;;5033799;28;20063;-82
2023/11/21 02:38:26;;;;;;;0.40;0.40;;;9.20;99.90;;;;;;5008342;28;20037;-83
2023/11/21 02:40:52;;;;;;;0.30;0.30;;;9.20;99.90;;;;;;5025457;28;20033;-80
2023/11/21 02:43:17;;;;;;;0.20;0.20;;;9.20;99.90;;;;;;5033576;28;20060;-81
2023/11/21 02:45:43;;;;;;;0.30;0.30;;;9.20;99.90;;;;;;5013811;28;20038;-80
2023/11/21 02:48:09;;;;;;;0.30;0.30;;;9.20;99.90;;;;;;5030873;28;20064;-80
2023/11/21 02:50:38;;;;;;;0.20;0.20;;;9.20;99.90;;;;;;5023818;28;20044;-81
2023/11/21 02:53:05;;;;;;;0.40;0.40;;;9.20;99.90;;;;;;5021054;28;20052;-79
2023/11/21 02:55:34;;;;;;;0.40;0.40;;;9.20;99.90;;;;;;5052170;28;20455;-83
2023/11/21 02:58:01;;;;;;;0.30;0.30;;;9.20;99.90;;;;;;5044189;28;20064;-82
2023/11/21 03:00:28;;;;;;;0.20;0.20;;;9.20;99.90;;;;;;5029113;28;20037;-83
2023/11/21 03:02:56;;;;;;;0.30;0.30;;;9.20;99.90;;;;;;5017213;28;20091;-82
2023/11/21 03:05:21;;;;;;;0.30;0.30;;;9.20;99.90;;;;;;5014962;28;20046;-82
2023/11/21 03:07:47;;;;;;;0.30;0.30;;;9.20;99.90;;;;;;5046470;28;20051;-83
2023/11/21 03:10:13;;;;;;;0.30;0.30;;;9.20;99.90;;;;;;5026121;28;20055;-83
2023/11/21 03:12:42;;;;;;;0.30;0.30;;;9.30;99.90;;;;;;5043147;28;20091;-83
2023/11/21 03:15:08;;;;;;;0.30;0.30;;;9.30;99.90;;;;;;5021464;28;20580;-82
2023/11/21 03:17:34;;;;;;;0.30;0.30;;;9.20;99.90;;;;;;5037652;28;20052;-82
2023/11/21 03:20:01;;;;;;;0.30;0.30;;;9.20;99.90;;;;;;5024509;28;20391;-82
2023/11/21 03:22:27;;;;;;;0.30;0.30;;;9.30;99.90;;;;;;5022541;28;20107;-82
2023/11/21 03:24:53;;;;;;;0.20;0.20;;;9.20;99.90;;;;;;5035621;28;20080;-83
2023/11/21 03:27:18;;;;;;;0.30;0.30;;;9.20;99.90;;;;;;5038714;28;20398;-83
2023/11/21 03:29:46;;;;;;;0.30;0.30;;;9.20;99.90;;;;;;5031870;28;20045;-82
2023/11/21 03:32:12;;;;;;;0.30;0.30;;;9.20;99.90;;;;;;5019885;28;20077;-81
2023/11/21 03:34:57;;;;;;;0.25;0.25;;;9.20;99.90;;;;;;5029215;28;20363;-82
2023/11/21 03:37:24;;;;;;;0.30;0.30;;;9.20;99.90;;;;;;5030273;28;20502;-82
2023/11/21 03:39:51;;;;;;;0.30;0.30;;;9.10;99.90;;;;;;5048449;28;20152;-81
2023/11/21 03:42:16;;;;;;;0.30;0.30;;;9.10;99.90;;;;;;5045675;28;20045;-81
2023/11/21 03:44:42;;;;;;;0.30;0.30;;;9.10;99.90;;;;;;5027632;28;20410;-81
2023/11/21 03:47:09;;;;;;;0.30;0.30;;;9.10;99.90;;;;;;5046213;28;20051;-81
2023/11/21 03:49:34;;;;;;;0.30;0.30;;;9.10;99.90;;;;;;5043613;28;20048;-81
2023/11/21 03:52:00;;;;;;;0.30;0.30;;;9.10;99.90;;;;;;5046524;28;20041;-83
2023/11/21 03:54:26;;;;;;;0.25;0.25;;;9.10;99.90;;;;;;5030252;28;20375;-81
2023/11/21 03:56:52;;;;;;;0.28;0.28;;;9.10;99.90;;;;;;5045162;28;20042;-81
2023/11/21 03:59:17;;;;;;;0.40;0.40;;;9.10;99.90;;;;;;5047023;28;20107;-81
2023/11/21 04:01:43;;;;;;;0.40;0.40;;;9.10;99.90;;;;;;5042605;28;20063;-84
2023/11/21 04:04:09;;;;;;;0.30;0.30;;;9.10;99.90;;;;;;5029901;28;20039;-83
2023/11/21 04:06:35;;;;;;;0.20;0.20;;;9.10;99.90;;;;;;5022977;28;20116;-83
2023/11/21 04:09:01;;;;;;;0.35;0.35;;;9.10;99.90;;;;;;5042670;28;20052;-83
2023/11/21 04:11:29;;;;;;;0.30;0.30;;;9.10;99.90;;;;;;5026275;28;20059;-83
2023/11/21 04:13:55;;;;;;;0.32;0.32;;;9.10;99.90;;;;;;5025380;28;20056;-84
2023/11/21 04:16:22;;;;;;;0.30;0.30;;;9.10;99.90;;;;;;5026857;28;20064;-83
2023/11/21 04:18:47;;;;;;;;;;;9.10;99.90;;;;;;5014137;28;20040;-84
2023/11/21 04:21:19;;;;;;;0.40;0.40;;;9.00;99.90;;;;;;5011345;28;20045;-84
2023/11/21 04:23:44;;;;;;;0.40;0.40;;;9.00;99.90;;;;;;5016273;28;20088;-82
2023/11/21 04:26:10;;;;;;;0.30;0.30;;;9.00;99.90;;;;;;5040341;28;20398;-83
2023/11/21 04:28:36;;;;;;;0.30;0.30;;;9.00;99.90;;;;;;5042839;28;20513;-83
2023/11/21 04:31:02;;;;;;;0.28;0.28;;;9.00;99.90;;;;;;5043538;28;20079;-83
2023/11/21 04:33:28;;;;;;;0.40;0.40;;;9.00;99.90;;;;;;5026913;28;20064;-82
2023/11/21 04:35:55;;;;;;;0.55;0.55;;;9.00;99.90;;;;;;5034967;28;20048;-81
2023/11/21 04:38:20;;;;;;;0.30;0.30;;;9.00;99.90;;;;;;5026899;28;20050;-81
2023/11/21 04:40:46;;;;;;;0.50;0.50;;;9.00;99.90;;;;;;5035732;28;20425;-82
2023/11/21 04:43:12;;;;;;;1.85;0.85;;;9.10;99.90;;;;;;5007888;28;20336;-82
2023/11/21 04:45:38;;;;;;;0.57;0.57;;;9.00;99.90;;;;;;5009049;28;20099;-81
2023/11/21 04:48:04;;;;;;;0.30;0.30;;;9.00;99.90;;;;;;5035393;28;20402;-81
2023/11/21 04:50:31;;;;;;;0.30;0.30;;;9.00;99.90;;;;;;5040183;28;20060;-80
2023/11/21 04:52:56;;;;;;;0.50;0.50;;;8.90;99.90;;;;;;5040229;28;20044;-80
2023/11/21 04:55:22;;;;;;;0.50;0.50;;;8.90;99.90;;;;;;5037163;28;20041;-81
2023/11/21 04:57:48;;;;;;;0.40;0.40;;;9.00;99.90;;;;;;5017310;28;20069;-81
2023/11/21 05:00:13;;;;;;;0.50;0.50;;;8.90;99.90;;;;;;5016211;28;20041;-81
2023/11/21 05:02:43;;;;;;;0.40;0.40;;;9.00;99.90;;;;;;5033626;28;20792;-81
2023/11/21 05:05:10;;;;;;;1.17;1.17;;;8.90;99.90;;;;;;5016307;28;20542;-81
2023/11/21 05:07:36;;;;;;;0.30;0.30;;;8.90;99.90;;;;;;5032581;28;20128;-81
2023/11/21 05:10:03;;;;;;;0.30;0.30;;;8.90;99.90;;;;;;5033386;28;20060;-81
2023/11/21 05:12:35;;;;;;;0.40;0.40;;;8.90;99.90;;;;;;5020936;28;20101;-81
2023/11/21 05:15:01;;;;;;;0.45;0.45;;;8.90;99.90;;;;;;5033153;28;20128;-80
2023/11/21 05:17:26;;;;;;;0.35;0.35;;;8.90;99.90;;;;;;5033426;28;20048;-81
2023/11/21 05:19:52;;;;;;;0.30;0.30;;;8.90;99.90;;;;;;5030085;28;20653;-81
2023/11/21 05:22:18;;;;;;;0.50;0.50;;;9.00;99.90;;;;;;5024669;28;20041;-81
2023/11/21 05:24:43;;;;;;;0.65;0.65;;;9.00;99.90;;;;;;5015492;28;20044;-81
2023/11/21 05:27:09;;;;;;;1.15;0.88;;;9.00;99.90;;;;;;5038230;28;20120;-81
2023/11/21 05:29:35;;;;;;;0.47;0.47;;;8.90;99.90;;;;;;5029247;28;20170;-81
2023/11/21 05:32:00;;;;;;;0.77;0.77;;;9.00;99.90;;;;;;5009623;28;20052;-82
2023/11/21 05:34:27;;;;;;;0.35;0.35;;;8.90;99.90;;;;;;5024426;28;20037;-82
2023/11/21 05:36:54;;;;;;;0.45;0.45;;;8.90;99.90;;;;;;5044032;28;20041;-82
2023/11/21 05:39:20;;;;;;;0.25;0.25;;;9.00;99.90;;;;;;5039969;28;20045;-81
2023/11/21 05:41:46;;;;;;;0.40;0.40;;;8.90;99.90;;;;;;5030284;28;20079;-83
2023/11/21 05:44:14;;;;;;;0.30;0.30;;;8.90;99.90;;;;;;5004986;28;20125;-83
2023/11/21 05:46:40;;;;;;;0.55;0.55;;;9.00;99.90;;;;;;5014577;28;20043;-82
2023/11/21 05:49:08;;;;;;;;;;;9.00;99.90;;;;;;5012988;28;20037;-83
2023/11/21 05:51:35;;;;;;;0.40;0.40;;;9.00;99.90;;;;;;5039471;28;19975;-82
2023/11/21 05:54:02;;;;;;;2.65;1.23;;;9.10;99.90;;;;;;5040873;28;20156;-82
2023/11/21 05:56:27;;;;;;;0.30;0.30;;;9.00;99.90;;;;;;5036661;28;20112;-84
2023/11/21 05:58:53;;;;;;;0.30;0.30;;;9.00;99.90;;;;;;5009488;28;20584;-84
2023/11/21 06:01:19;;;;;;;0.50;0.50;;;9.00;99.90;;;;;;5010497;28;20037;-83
2023/11/21 06:03:48;;;;;;;2.90;1.45;;;9.00;99.90;;;;;;5034592;28;20044;-84
2023/11/21 06:06:15;;;;;;;1.48;0.52;;;9.40;99.90;;;;;;5024620;28;20495;-83
2023/11/21 06:08:40;;;;;;;0.30;0.30;;;8.90;99.90;;;;;;5038664;28;20045;-82
2023/11/21 06:11:06;;;;;;;0.40;0.40;;;9.40;99.90;;;;;;5034714;28;20110;-83
2023/11/21 06:13:32;;;;;;;0.30;0.30;;;8.80;99.90;;;;;;5012773;28;20045;-83
2023/11/21 06:15:58;;;;;;;0.40;0.40;;;8.80;99.90;;;;;;5009346;28;20572;-84
2023/11/21 06:18:23;;;;;;;;;;;8.80;99.90;;;;;;5006683;28;20069;-84
2023/11/21 06:20:55;;;;;;;0.40;0.40;;;8.80;99.90;;;;;;5019609;28;19957;-84
2023/11/21 06:23:21;;;;;;;0.50;0.50;;;8.80;99.90;;;;;;5034566;28;20123;-85
2023/11/21 06:25:48;;;;;;;0.98;0.98;;;8.80;99.90;;;;;;5004014;28;20048;-85
2023/11/21 06:28:17;;;;;;;0.60;0.60;;;8.80;99.90;;;;;;5028244;28;20084;-87
2023/11/21 06:30:44;;;;;;;0.40;0.40;;;8.70;99.90;;;;;;5006549;28;20065;-83
2023/11/21 06:33:11;;;;;;;0.40;0.40;;;8.70;99.90;;;;;;5025424;28;20034;-85
2023/11/21 06:35:37;;;;;;;0.70;0.70;;;8.80;99.90;;;;;;5038082;28;20107;-84
2023/11/21 06:38:09;;;;;;;0.63;0.63;;;8.70;99.90;;;;;;5015942;28;20037;-84
2023/11/21 06:40:34;;;;;;;0.73;0.35;;;8.60;99.90;;;;;;5022922;28;20038;-85
2023/11/21 06:43:04;;;;;;;0.95;0.95;;;8.70;99.90;;;;;;5053569;28;20052;-84
2023/11/21 06:45:39;;;;;;;1.58;1.52;;;8.70;99.90;;;;;;5044799;28;20056;-84
2023/11/21 06:48:05;;;;;;;0.40;0.40;;;8.60;99.90;;;;;;5019071;28;20048;-85
2023/11/21 06:50:30;;;;;;;0.75;0.75;;;8.60;99.90;;;;;;5042057;28;20067;-84
2023/11/21 06:52:58;;;;;;;0.85;0.75;;;8.60;99.90;;;;;;5044221;28;20049;-84
2023/11/21 06:55:26;;;;;;;1.15;1.15;;;8.50;99.90;;;;;;5044948;28;20511;-83
2023/11/21 06:57:53;;;;;;;0.85;0.85;;;8.50;99.90;;;;;;5032907;28;20076;-84
2023/11/21 07:00:20;;;;;;;0.50;0.50;;;8.50;99.90;;;;;;5023625;28;20115;-82
2023/11/21 07:02:46;;;;;;;0.50;0.50;;;8.50;99.90;;;;;;5027856;28;20040;-85
2023/11/21 07:05:20;;;;;;;0.50;0.50;;;8.50;99.90;;;;;;5017430;28;20038;-85
2023/11/21 07:07:48;;;;;;;0.43;0.43;;;8.40;99.90;;;;;;5023163;28;20446;-84
2023/11/21 07:10:17;;;;;;;0.65;0.65;;;8.50;99.90;;;;;;5049763;28;20036;-84
2023/11/21 07:12:42;;;;;;;0.52;0.52;;;8.40;99.90;;;;;;5060910;28;20064;-86
2023/11/21 07:15:12;;;;;;;0.98;0.98;;;8.40;99.90;;;;;;5039435;28;20061;-84
2023/11/21 07:17:41;;;;;;;0.32;0.32;;;8.40;99.90;;;;;;5044374;28;20037;-83
2023/11/21 07:20:12;;;;;;;1.27;1.15;;;8.40;99.90;;;;;;5045574;28;20087;-85
2023/11/21 07:22:40;;;;;;;0.30;0.30;;;8.40;99.90;;;;;;5023176;28;20045;-85
2023/11/21 07:25:07;;;;;;;0.82;0.82;;;8.40;99.90;;;;;;5016946;28;20040;-84
2023/11/21 07:27:35;;;;;;;1.05;1.05;;;8.40;99.90;;;;;;5022828;28;20111;-83
2023/11/21 07:30:04;;;;;;;0.73;0.73;;;8.40;99.90;;;;;;5033981;28;20057;-83
2023/11/21 07:32:31;;;;;;;0.98;0.90;;;8.30;99.90;;;;;;5035735;28;20406;-84
2023/11/21 07:35:01;;;;;;;0.70;0.70;;;8.30;99.90;;;;;;5047721;28;20048;-83
2023/11/21 07:37:29;;;;;;;0.40;0.40;;;8.30;99.90;;;;;;5029935;28;20379;-84
2023/11/21 07:39:57;;;;;;;0.40;0.40;;;8.40;99.90;;;;;;5023649;28;20037;-82
2023/11/21 07:42:26;;;;;;;1.00;1.00;;;8.40;99.90;;;;;;5027666;28;20498;-82
2023/11/21 07:44:52;;;;;;;0.40;0.40;;;8.30;99.90;;;;;;5030899;28;20049;-82
2023/11/21 07:47:18;;;;;;;0.38;0.38;;;8.30;99.90;;;;;;5050595;28;20048;-80
2023/11/21 07:49:44;;;;;;;0.40;0.40;;;8.30;99.90;;;;;;5042815;28;20037;-81
2023/11/21 07:52:10;;;;;;;1.08;1.08;;;8.30;99.90;;;;;;5041870;28;20073;-81
2023/11/21 07:54:36;;;;;;;10.95;1.00;;;8.30;99.90;;;;;;5027945;28;20142;-81
2023/11/21 07:57:08;;;;;;;0.50;0.50;;;8.40;99.90;;;;;;5027863;28;20049;-79
2023/11/21 07:59:34;;;;;;;13.73;1.52;;;8.40;99.90;;;;;;5024860;28;20037;-80
2023/11/21 08:02:00;;;;;;;0.50;0.50;;;8.40;99.90;;;;;;5044547;28;20045;-81
2023/11/21 08:04:25;;;;;;;0.40;0.40;;;8.30;99.90;;;;;;5030135;28;20045;-81
2023/11/21 08:06:51;;;;;;;1.05;1.05;;;8.30;99.90;;;;;;5025861;28;20091;-80
2023/11/21 08:09:17;;;;;;;0.40;0.40;;;8.40;99.90;;;;;;5050399;28;20076;-81
2023/11/21 08:11:43;;;;;;;0.63;0.63;;;8.40;99.90;;;;;;5024460;28;20044;-82
2023/11/21 08:14:09;;;;;;;1.45;0.65;;;7.70;99.90;;;;;;5021004;28;20044;-83
2023/11/21 08:16:35;;;;;;;0.50;0.50;;;8.40;99.90;;;;;;5029356;28;20059;-83
2023/11/21 08:19:02;;;;;;;1.13;1.02;;;8.40;99.90;;;;;;5030672;28;20446;-82
2023/11/21 08:21:29;;;;;;;1.55;0.70;;;8.40;99.90;;;;;;5046621;28;20064;-82
2023/11/21 08:23:55;;;;;;;1.20;0.70;;;8.40;99.90;;;;;;5042635;28;20048;-83
2023/11/21 08:26:22;;;;;;;0.70;0.70;;;8.40;99.90;;;;;;5032836;28;20140;-81
2023/11/21 08:28:49;;;;;;;0.40;0.40;;;8.40;99.90;;;;;;5047852;28;20045;-81
2023/11/21 08:31:15;;;;;;;1.95;1.85;;;8.40;99.90;;;;;;5027082;28;20044;-84
2023/11/21 08:33:41;;;;;;;0.40;0.40;;;8.30;99.90;;;;;;5039860;28;20049;-82
2023/11/21 08:36:11;;;;;;;0.40;0.40;;;8.30;99.90;;;;;;5056071;28;20112;-81
2023/11/21 08:38:37;;;;;;;0.30;0.30;;;8.30;99.90;;;;;;5055777;28;20045;-80
2023/11/21 08:41:07;;;;;;;0.30;0.30;;;8.30;99.90;;;;;;5023529;28;20041;-80
2023/11/21 08:43:39;;;;;;;0.30;0.30;;;8.30;99.90;;;;;;5042629;28;20048;-81
2023/11/21 08:46:11;;;;;;;0.30;0.30;;;8.30;99.90;;;;;;5042977;28;20053;-80
2023/11/21 08:48:37;;;;;;;3.72;2.25;;;8.30;99.90;;;;;;5031938;28;20054;-81
2023/11/21 08:51:04;;;;;;;0.38;0.38;;;8.30;99.90;;;;;;5045161;28;20498;-81
2023/11/21 08:53:30;;;;;;;0.45;0.45;;;8.30;99.90;;;;;;5058164;28;20222;-83
2023/11/21 08:55:56;;;;;;;;;;;8.30;99.90;;;;;;5031346;28;20565;-81
2023/11/21 08:58:22;;;;;;;1.02;1.02;;;8.30;99.90;;;;;;5042841;28;19923;-81
2023/11/21 09:00:48;;;;;;;0.40;0.40;;;8.40;99.90;;;;;;5047848;28;20041;-82
2023/11/21 09:03:13;;;;;;;0.85;0.85;;;8.30;99.90;;;;;;5045583;28;20049;-83
2023/11/21 09:05:39;;;;;;;0.38;0.38;;;8.30;99.90;;;;;;5030611;28;20037;-81
2023/11/21 09:08:06;;;;;;;;;;;8.30;99.90;;;;;;5038112;28;20398;-81
2023/11/21 09:10:35;;;;;;;0.55;0.55;;;8.40;99.90;;;;;;5055136;28;19923;-82
2023/11/21 09:13:01;;;;;;;0.50;0.50;;;8.40;99.90;;;;;;5052245;28;20049;-80
2023/11/21 09:15:27;;;;;;;;;;;8.40;99.90;;;;;;5045791;28;20166;-81
2023/11/21 09:17:53;;;;;;;0.90;0.90;;;8.40;99.90;;;;;;5029262;28;20285;-80
2023/11/21 09:20:22;;;;;;;0.63;0.63;;;8.40;99.90;;;;;;5041092;28;20060;-82
2023/11/21 09:22:49;;;;;;;0.63;0.63;;;8.40;99.90;;;;;;5035691;28;20064;-82
2023/11/21 09:25:15;;;;;;;0.43;0.43;;;8.40;99.90;;;;;;5042625;28;20065;-81
2023/11/21 09:27:40;;;;;;;0.40;0.40;;;8.50;99.90;;;;;;5042862;28;20478;-79
2023/11/21 09:30:10;;;;;;;0.73;0.73;;;8.40;99.90;;;;;;5046135;28;20041;-80
2023/11/21 09:32:37;;;;;;;0.45;0.45;;;8.50;99.90;;;;;;5050001;28;20048;-79
2023/11/21 09:35:04;;;;;;;0.30;0.30;;;8.50;99.90;;;;;;5027936;28;20102;-82
2023/11/21 09:37:30;;;;;;;0.35;0.35;;;8.50;99.90;;;;;;5042109;28;20098;-83
2023/11/21 09:39:56;;;;;;;0.43;0.43;;;8.40;99.90;;;;;;5052234;28;20111;-83
2023/11/21 09:42:41;;;;;;;0.75;0.75;;;8.40;99.90;;;;;;5029771;28;20132;-83
2023/11/21 09:45:28;;;;;;;2.72;1.00;;;8.40;99.90;;;;;;5048915;28;20063;-80
2023/11/21 09:47:58;;;;;;;0.50;0.50;;;8.40;99.90;;;;;;5055390;28;20049;-81
2023/11/21 09:50:24;;;;;;;0.75;0.75;;;8.40;99.90;;;;;;5034496;28;20059;-79
2023/11/21 09:53:10;;;;;;;1.15;1.05;;;8.40;99.90;;;;;;5025398;28;20044;-82
2023/11/21 09:55:38;;;;;;;0.80;0.73;;;8.50;99.90;;;;;;5044726;28;20044;-82
2023/11/21 09:58:07;;;;;;;0.50;0.50;;;8.60;99.90;;;;;;5041474;28;20502;-80
2023/11/21 10:00:33;;;;;;;0.30;0.30;;;8.70;99.90;;;;;;5040242;28;20049;-81
2023/11/21 10:02:59;;;;;;;0.38;0.38;;;8.70;99.90;;;;;;5045637;28;20047;-82
2023/11/21 10:05:25;;;;;;;;;;;8.70;99.90;;;;;;5026009;28;20042;-81
2023/11/21 10:07:52;;;;;;;0.40;0.40;;;8.80;99.90;;;;;;5049492;28;20016;-82
2023/11/21 10:10:23;;;;;;;0.40;0.40;;;8.60;99.90;;;;;;5030829;28;20115;-80
2023/11/21 10:12:53;;;;;;;1.23;0.65;;;8.50;99.90;;;;;;5049688;28;20468;-80
2023/11/21 10:15:22;;;;;;;0.57;0.57;;;8.50;99.90;;;;;;5026305;28;21673;-81
2023/11/21 10:17:50;;;;;;;0.40;0.40;;;8.50;99.90;;;;;;5044875;28;20106;-81
2023/11/21 10:20:16;;;;;;;0.30;0.30;;;8.60;99.90;;;;;;5045328;28;20091;-82
2023/11/21 10:22:43;;;;;;;0.77;0.70;;;8.70;99.90;;;;;;5028949;28;20044;-79
2023/11/21 10:25:14;;;;;;;0.43;0.43;;;8.60;99.90;;;;;;5049863;28;20045;-78
2023/11/21 10:27:41;;;;;;;0.65;0.65;;;8.60;99.90;;;;;;5041764;28;20099;-80
2023/11/21 10:30:11;;;;;;;0.40;0.40;;;8.70;99.90;;;;;;5047125;28;20041;-82
2023/11/21 10:32:41;;;;;;;0.60;0.60;;;8.70;99.90;;;;;;5019219;28;20125;-81
2023/11/21 10:35:10;;;;;;;0.47;0.47;;;8.80;99.90;;;;;;5025813;28;20087;-80
2023/11/21 10:37:45;;;;;;;0.30;0.30;;;8.70;99.90;;;;;;5041701;28;20033;-81
2023/11/21 10:40:11;;;;;;;0.40;0.40;;;8.90;99.90;;;;;;5051588;28;20064;-81
2023/11/21 10:42:41;;;;;;;0.30;0.30;;;8.90;99.90;;;;;;5025605;28;20436;-82
2023/11/21 10:45:14;;;;;;;0.30;0.30;;;8.90;99.90;;;;;;5042884;28;20040;-82
2023/11/21 10:47:44;;;;;;;0.30;0.30;;;8.90;99.90;;;;;;5016358;28;20536;-81
2023/11/21 10:50:11;;;;;;;0.30;0.30;;;8.90;99.90;;;;;;5049930;28;20037;-81
2023/11/21 10:52:47;;;;;;;1.27;1.17;;;8.90;99.90;;;;;;5027488;28;20066;-81
2023/11/21 10:55:24;;;;;;;0.30;0.30;;;8.90;99.90;;;;;;5047211;28;20190;-82
2023/11/21 10:57:54;;;;;;;0.40;0.40;;;8.80;99.90;;;;;;5017208;28;20033;-84
2023/11/21 11:00:20;;;;;;;1.15;1.15;;;8.80;99.90;;;;;;5032346;28;20077;-82
2023/11/21 11:02:55;;;;;;;0.40;0.40;;;8.80;99.90;;;;;;5044194;28;20072;-83
2023/11/21 11:05:24;;;;;;;0.30;0.30;;;9.10;99.90;;;;;;5045533;28;20041;-82
2023/11/21 11:08:05;;;;;;;0.93;0.93;;;8.80;99.90;;;;;;5039566;28;20128;-82
2023/11/21 11:10:31;;;;;;;0.30;0.30;;;8.70;99.90;;;;;;5023577;28;20056;-82
2023/11/21 11:12:58;;;;;;;;;;;8.80;99.90;;;;;;5040085;28;20056;-82
2023/11/21 11:15:26;;;;;;;0.43;0.43;;;8.80;99.90;;;;;;5028960;28;19929;-83
2023/11/21 11:17:52;;;;;;;0.55;0.40;;;9.00;99.90;;;;;;5048335;28;20053;-82
2023/11/21 11:20:20;;;;;;;0.40;0.40;;;9.10;99.90;;;;;;5041562;28;20052;-83
2023/11/21 11:23:01;;;;;;;0.30;0.30;;;9.00;99.90;;;;;;5026994;28;20044;-82
2023/11/21 11:25:42;;;;;;;0.60;0.60;;;9.10;99.90;;;;;;5039810;28;20045;-82
2023/11/21 11:28:14;;;;;;;0.30;0.30;;;9.00;99.90;;;;;;5043286;28;20494;-82
2023/11/21 11:31:08;;;;;;;0.30;0.30;;;9.00;99.90;;;;;;5044940;28;20044;-83
2023/11/21 11:34:05;;;;;;;0.98;0.98;;;9.00;99.90;;;;;;5040099;28;20498;-82
2023/11/21 11:36:47;;;;;;;0.65;0.65;;;8.90;99.90;;;;;;5031715;28;20053;-82
2023/11/21 11:39:41;;;;;;;0.32;0.32;;;8.90;99.90;;;;;;5036803;28;20037;-82
2023/11/21 11:42:16;;;;;;;0.40;0.40;;;8.80;99.90;;;;;;5057504;28;20111;-83
2023/11/21 11:44:51;;;;;;;1.25;1.17;;;8.70;99.90;;;;;;5045879;28;20030;-83
2023/11/21 11:47:23;;;;;;;0.40;0.40;;;8.70;99.90;;;;;;5041060;28;20575;-83
2023/11/21 11:50:17;;;;;;;0.40;0.40;;;8.70;99.90;;;;;;5022859;28;20045;-83
2023/11/21 11:52:44;;;;;;;0.75;0.55;;;8.80;99.90;;;;;;5038685;28;20107;-82
2023/11/21 11:55:18;;;;;;;0.82;0.50;;;8.90;99.90;;;;;;5046551;28;20040;-83
2023/11/21 11:57:47;;;;;;;0.50;0.50;;;9.00;99.90;;;;;;5035263;28;20076;-82
2023/11/21 12:00:33;;;;;;;0.85;0.55;;;9.10;99.90;;;;;;5046868;28;20072;-82
2023/11/21 12:03:03;;;;;;;0.40;0.40;;;9.10;99.90;;;;;;5042074;28;20046;-81
2023/11/21 12:05:33;;;;;;;0.40;0.40;;;9.20;99.90;;;;;;5042136;28;20049;-82
2023/11/21 12:08:01;;;;;;;0.30;0.30;;;9.10;99.90;;;;;;5024502;28;20060;-82
2023/11/21 12:10:31;;;;;;;0.30;0.30;;;9.00;99.90;;;;;;5053581;28;20072;-81
2023/11/21 12:13:00;;;;;;;0.60;0.60;;;8.90;99.90;;;;;;5048869;28;20052;-82
2023/11/21 12:15:26;;;;;;;1.85;1.70;;;8.80;99.90;;;;;;5041652;28;20080;-82
2023/11/21 12:17:52;;;;;;;0.32;0.32;;;8.80;99.90;;;;;;5028048;28;20045;-82
2023/11/21 12:20:20;;;;;;;0.38;0.38;;;8.90;99.90;;;;;;5021827;28;20037;-82
2023/11/21 12:22:48;;;;;;;0.43;0.43;;;9.00;99.90;;;;;;5018109;28;20041;-82
2023/11/21 12:25:22;;;;;;;0.77;0.77;;;9.10;99.90;;;;;;5025017;28;20562;-82
2023/11/21 12:27:52;;;;;;;0.50;0.50;;;9.30;99.90;;;;;;5031094;28;20049;-81
2023/11/21 12:30:21;;;;;;;0.20;0.20;;;9.40;99.90;;;;;;5020999;28;20438;-82
2023/11/21 12:32:52;;;;;;;0.30;0.30;;;9.50;99.90;;;;;;5047184;28;20049;-82
2023/11/21 12:35:30;;;;;;;0.75;0.75;;;9.60;99.90;;;;;;5019790;28;20033;-82
2023/11/21 12:37:59;;;;;;;1.00;1.00;;;9.50;99.90;;;;;;5042677;28;20390;-82
2023/11/21 12:40:25;;;;;;;0.30;0.30;;;9.50;99.90;;;;;;5022214;28;20037;-82
2023/11/21 12:42:53;;;;;;;;;;;9.60;99.90;;;;;;5022673;28;20048;-82
2023/11/21 12:45:19;;;;;;;;;;;9.70;99.90;;;;;;5038906;28;19917;-82
2023/11/21 12:47:45;;;;;;;0.35;0.35;;;9.70;99.90;;;;;;5037719;28;19921;-82
2023/11/21 12:50:14;;;;;;;3.20;0.68;;;9.70;99.90;;;;;;5038772;28;20045;-82
2023/11/21 12:52:49;;;;;;;2.40;1.05;;;9.70;99.90;;;;;;5038245;28;20041;-82
2023/11/21 12:55:21;;;;;;;0.40;0.40;;;9.60;99.90;;;;;;5044068;28;20041;-82
2023/11/21 12:57:51;;;;;;;1.00;1.00;;;9.60;99.90;;;;;;5024059;28;20422;-82
2023/11/21 13:00:27;;;;;;;0.50;0.50;;;9.50;99.90;;;;;;5038748;28;20037;-81
2023/11/21 13:02:56;;;;;;;0.30;0.30;;;9.50;99.90;;;;;;5031278;28;20025;-82
2023/11/21 13:05:34;;;;;;;0.30;0.30;;;9.40;99.90;;;;;;5057328;28;20513;-82